»·PEaware :: FDX3171 K11S-KSEA

FDX3171 :: K11S-KSEA

FLIGHT INFORMATION

Flight Status: Arrived
Operator:
Federal Express
More flights by this operator :: More flights under this callsign
Pilot: David C. (16084)
Aircraft: BEECH AIRCRAFT BEECH AIRLINER
(B190)
More flights by this aircraft type
Origin: K11S
Destination: KSEA Seattle-Tacoma Intl
United States
More flights between these airports :: More routes between these airports
Route: +TOU V4 JAWBN JAWBN5
File this flight plan on PilotEdge
Remarks:
Altitude:
(Current/Filed)
15,000ft
Speed:
(Current/Filed)
260kts
Departed: 15-Dec-17 12:59 PM
Arrived: 15-Dec-17 01:36 PM
Distance/Time
Traveled:
Not Available
Distance/Time
To Go:
Arrived

Flight Plot

Page will automatically refresh every two minutes.

Flight plan parsing failed; only flown route is shown


Map Options




Map Legend


Flown Route
Filed Route
Departure Airport
Arrival Airport
Navaid (VOR, NDB)
Fix

Horizontal Profiles

Position Reports

Time Latitude Longitude Heading Altitude Ground
Speed
15-Dec-17 12:57 48.265700 -124.309535 187 355ft 0kts
15-Dec-17 12:58 48.265700 -124.309535 187 355ft 0kts
15-Dec-17 12:59 48.265700 -124.309535 187 355ft 0kts
15-Dec-17 13:00 48.265700 -124.309535 187 355ft 0kts
15-Dec-17 13:01 48.265593 -124.310131 279 355ft 14kts
15-Dec-17 13:02 48.266667 -124.318610 280 355ft 23kts
15-Dec-17 13:03 48.266787 -124.319534 100 355ft 0kts
15-Dec-17 13:04 48.266787 -124.319534 100 355ft 0kts
15-Dec-17 13:05 48.263785 -124.292636 100 977ft 149kts
15-Dec-17 13:06 48.255129 -124.227777 105 3606ft 167kts
15-Dec-17 13:07 48.224399 -124.237239 282 5997ft 162kts
15-Dec-17 13:08 48.249984 -124.289380 300 8339ft 163kts
15-Dec-17 13:09 48.231522 -124.326463 156 10913ft 195kts
15-Dec-17 13:10 48.210149 -124.249091 107 13071ft 214kts
15-Dec-17 13:11 48.202019 -124.160156 102 14924ft 242kts
15-Dec-17 13:12 48.187931 -124.047745 102 14983ft 302kts
15-Dec-17 13:13 48.172003 -123.921280 102 14963ft 315kts
15-Dec-17 13:14 48.155642 -123.792644 102 14949ft 317kts
15-Dec-17 13:15 48.139023 -123.663301 102 14950ft 317kts
15-Dec-17 13:16 48.122233 -123.533826 102 14950ft 318kts
15-Dec-17 13:17 48.105290 -123.404420 102 14951ft 318kts
15-Dec-17 13:18 48.088452 -123.277916 102 14932ft 317kts
15-Dec-17 13:19 48.071728 -123.151667 101 14929ft 314kts
15-Dec-17 13:20 48.054808 -123.025384 102 14944ft 313kts
15-Dec-17 13:21 48.037820 -122.900092 102 14969ft 311kts
15-Dec-17 13:22 47.988394 -122.808056 152 14976ft 296kts
15-Dec-17 13:23 47.918538 -122.744254 153 14962ft 296kts
15-Dec-17 13:24 47.853024 -122.684645 151 13536ft 262kts
15-Dec-17 13:25 47.797321 -122.633558 153 11402ft 233kts
15-Dec-17 13:26 47.744677 -122.586444 152 9228ft 217kts
15-Dec-17 13:27 47.702822 -122.532379 88 7064ft 216kts
15-Dec-17 13:28 47.711718 -122.447191 79 4929ft 208kts
15-Dec-17 13:29 47.720384 -122.366634 79 3088ft 181kts
15-Dec-17 13:30 47.727426 -122.304972 79 3060ft 146kts
15-Dec-17 13:31 47.735289 -122.243641 80 3051ft 151kts
15-Dec-17 13:32 47.743554 -122.183358 80 3023ft 150kts
15-Dec-17 13:33 47.727471 -122.145024 205 3024ft 148kts
15-Dec-17 13:34 47.705948 -122.197110 241 3028ft 154kts
15-Dec-17 13:35 47.686314 -122.253364 241 3032ft 156kts
15-Dec-17 13:36 47.653498 -122.292176 211 3036ft 157kts
15-Dec-17 13:37 47.614793 -122.316383 181 3037ft 156kts
15-Dec-17 13:38 47.571910 -122.316899 179 2566ft 145kts
15-Dec-17 13:39 47.536412 -122.317155 180 1905ft 125kts
15-Dec-17 13:40 47.501691 -122.317512 179 1223ft 124kts
15-Dec-17 13:41 47.468925 -122.317782 178 600ft 116kts
15-Dec-17 13:42 47.447245 -122.315992 134 438ft 25kts
15-Dec-17 13:43 47.446662 -122.314749 114 438ft 0kts
15-Dec-17 13:44 47.446662 -122.314749 114 438ft 0kts
15-Dec-17 13:45 47.443719 -122.308482 127 438ft 27kts
15-Dec-17 13:46 47.450272 -122.306220 1 438ft 45kts
15-Dec-17 13:47 47.459194 -122.305043 3 438ft 34kts

Navigation Log

Ident Type
Flight plan parsing failed, navigation log unavailable